Time;durP1;ratioP1;P1;durP2;ratioP2;P2;SDS_P1;SDS_P2;PMS_P1;PMS_P2;Temp;Humidity;BMP_temperature;BMP_pressure;BME280_temperature;BME280_humidity;BME280_pressure;Samples;Min_cycle;Max_cycle;Signal;HPM_P1;HPM_P2
2023/04/04 00:00:14;;;;;;;;;;;21.10;49.20;;;;;;6431463;27;20054;-54
2023/04/04 00:03:16;;;;;;;0.55;0.50;;;21.40;70.80;;;;;;6432590;27;19915;-53
2023/04/04 00:06:24;;;;;;;0.98;0.70;;;21.60;70.90;;;;;;6432731;27;20030;-50
2023/04/04 00:09:28;;;;;;;0.47;0.47;;;21.00;70.60;;;;;;6432385;27;20067;-48
2023/04/04 00:12:30;;;;;;;0.90;0.68;;;21.30;70.80;;;;;;6430803;27;20049;-54
2023/04/04 00:15:35;;;;;;;0.70;0.40;;;21.30;70.70;;;;;;6431801;27;20090;-54
2023/04/04 00:18:38;;;;;;;1.05;0.80;;;21.20;70.70;;;;;;6428138;27;20029;-54
2023/04/04 00:21:40;;;;;;;0.88;0.70;;;21.50;71.00;;;;;;6428391;27;20050;-51
2023/04/04 00:24:41;;;;;;;0.52;0.40;;;21.30;70.90;;;;;;6430761;27;20053;-53
2023/04/04 00:27:46;;;;;;;;;;;21.10;48.70;;;;;;6432097;27;20050;-53
2023/04/04 00:30:50;;;;;;;0.77;0.60;;;21.00;70.70;;;;;;6431127;27;19926;-53
2023/04/04 00:33:54;;;;;;;0.50;0.50;;;21.30;51.70;;;;;;6432276;27;20019;-53
2023/04/04 00:36:57;;;;;;;0.63;0.50;;;21.20;70.80;;;;;;6432527;27;20053;-53
2023/04/04 00:39:59;;;;;;;0.45;0.40;;;;;;;;;;6428533;27;20051;-54
2023/04/04 00:43:02;;;;;;;0.68;0.60;;;;;;;;;;6430607;27;20022;-54
2023/04/04 00:46:03;;;;;;;1.00;0.90;;;21.50;71.10;;;;;;6430299;27;20060;-54
2023/04/04 00:49:06;;;;;;;0.60;0.40;;;;;;;;;;6431507;27;20027;-51
2023/04/04 00:52:09;;;;;;;0.65;0.45;;;21.00;70.80;;;;;;6431445;27;20051;-54
2023/04/04 00:55:11;;;;;;;0.70;0.52;;;;;;;;;;6431167;27;20034;-53
2023/04/04 00:58:12;;;;;;;0.60;0.57;;;21.40;71.00;;;;;;6428849;27;20051;-53
2023/04/04 01:01:14;;;;;;;;;;;20.90;49.40;;;;;;6430713;27;20056;-51
2023/04/04 01:04:15;;;;;;;0.65;0.50;;;21.20;71.10;;;;;;6430605;27;19942;-52
2023/04/04 01:07:20;;;;;;;0.70;0.50;;;21.00;70.90;;;;;;6431553;27;20041;-53
2023/04/04 01:10:24;;;;;;;0.70;0.43;;;21.00;47.00;;;;;;6456261;22;20077;-43
2023/04/04 01:13:26;;;;;;;0.80;0.50;;;21.40;51.90;;;;;;6370732;28;20047;-44
2023/04/04 01:16:29;;;;;;;0.57;0.50;;;;;;;;;;6368102;28;20061;-44
2023/04/04 01:19:35;;;;;;;0.30;0.30;;;20.90;70.70;;;;;;6368074;28;20061;-44
2023/04/04 01:22:49;;;;;;;0.70;0.50;;;21.30;70.90;;;;;;6368797;28;20047;-45
2023/04/04 01:26:01;;;;;;;0.60;0.38;;;20.90;70.60;;;;;;6368919;28;20043;-42
2023/04/04 01:29:04;;;;;;;0.40;0.40;;;21.40;70.80;;;;;;6352243;28;20040;-42
2023/04/04 01:32:11;;;;;;;0.52;0.35;;;21.10;71.00;;;;;;6368923;28;20043;-46
2023/04/04 01:35:24;;;;;;;0.60;0.57;;;20.90;70.70;;;;;;6350216;28;20046;-44
2023/04/04 01:38:34;;;;;;;0.80;0.57;;;21.20;55.00;;;;;;6332919;28;20040;-44
2023/04/04 01:41:38;;;;;;;0.57;0.50;;;21.00;70.80;;;;;;6368579;28;20134;-46
2023/04/04 01:44:40;;;;;;;0.50;0.50;;;21.00;70.90;;;;;;6363909;28;20093;-45
2023/04/04 01:47:42;;;;;;;0.68;0.55;;;20.90;70.40;;;;;;6369308;28;20517;-44
2023/04/04 01:50:51;;;;;;;0.90;0.50;;;21.10;70.80;;;;;;6372024;28;20047;-44
2023/04/04 01:53:54;;;;;;;0.70;0.40;;;20.90;70.70;;;;;;6370813;28;20047;-45
2023/04/04 01:57:00;;;;;;;0.60;0.43;;;20.90;70.90;;;;;;6369877;28;20059;-47
2023/04/04 02:00:02;;;;;;;0.70;0.50;;;;;;;;;;6368858;28;20057;-44
2023/04/04 02:03:04;;;;;;;0.47;0.40;;;21.00;70.90;;;;;;6368541;28;20563;-43
2023/04/04 02:06:06;;;;;;;;;;;20.70;49.40;;;;;;6369324;28;20054;-41
2023/04/04 02:09:08;;;;;;;0.40;0.30;;;20.90;70.40;;;;;;6369030;28;19919;-42
2023/04/04 02:12:10;;;;;;;0.43;0.38;;;21.20;71.10;;;;;;6368213;28;20089;-41
2023/04/04 02:15:13;;;;;;;0.60;0.50;;;21.10;48.90;;;;;;6368824;28;20035;-45
2023/04/04 02:18:15;;;;;;;0.68;0.40;;;20.90;71.10;;;;;;6368809;28;20042;-48
2023/04/04 02:21:19;;;;;;;0.52;0.50;;;20.70;71.00;;;;;;6368227;28;20135;-41
2023/04/04 02:24:21;;;;;;;0.60;0.50;;;20.80;47.00;;;;;;6315634;28;20131;-47
2023/04/04 02:27:23;;;;;;;0.50;0.50;;;20.90;49.00;;;;;;6367600;28;20425;-44
2023/04/04 02:30:25;;;;;;;0.45;0.38;;;20.70;70.80;;;;;;6367670;28;20043;-46
2023/04/04 02:33:27;;;;;;;0.68;0.30;;;21.00;71.20;;;;;;6367122;28;20064;-47
2023/04/04 02:36:30;;;;;;;1.15;0.40;;;20.80;71.00;;;;;;6368432;28;20104;-45
2023/04/04 02:39:33;;;;;;;0.98;0.50;;;;;;;;;;6368943;28;20100;-44
2023/04/04 02:42:35;;;;;;;0.70;0.40;;;20.90;48.90;;;;;;6368183;28;20055;-47
2023/04/04 02:45:37;;;;;;;0.75;0.40;;;20.70;70.90;;;;;;6367782;28;20039;-46
2023/04/04 02:48:50;;;;;;;0.65;0.30;;;20.70;71.10;;;;;;6367903;28;20044;-43
2023/04/04 02:51:53;;;;;;;0.60;0.40;;;20.70;71.00;;;;;;6368431;28;20399;-47
2023/04/04 02:54:56;;;;;;;0.95;0.52;;;20.40;71.00;;;;;;6367952;28;20119;-43
2023/04/04 02:58:06;;;;;;;0.50;0.40;;;20.80;71.30;;;;;;6368666;28;20067;-44
2023/04/04 03:01:07;;;;;;;0.65;0.47;;;20.80;71.30;;;;;;6368357;28;20082;-45
2023/04/04 03:04:12;;;;;;;0.30;0.30;;;21.00;71.50;;;;;;6367969;28;20501;-47
2023/04/04 03:07:16;;;;;;;0.32;0.32;;;20.30;71.20;;;;;;6367401;28;20044;-47
2023/04/04 03:10:18;;;;;;;0.50;0.50;;;20.50;71.30;;;;;;6363839;28;20044;-45
2023/04/04 03:13:20;;;;;;;;;;;20.80;49.40;;;;;;6370488;28;20043;-48
2023/04/04 03:16:22;;;;;;;0.47;0.40;;;21.00;71.80;;;;;;6370573;28;19927;-45
2023/04/04 03:19:26;;;;;;;0.50;0.40;;;21.00;71.70;;;;;;6368636;28;20067;-48
2023/04/04 03:22:27;;;;;;;0.50;0.40;;;20.60;70.70;;;;;;6317949;28;20060;-47
2023/04/04 03:25:29;;;;;;;0.50;0.30;;;20.60;70.70;;;;;;6368876;28;20044;-42
2023/04/04 03:28:38;;;;;;;0.40;0.40;;;20.90;70.80;;;;;;6368943;28;20061;-44
2023/04/04 03:31:40;;;;;;;0.30;0.30;;;20.50;70.70;;;;;;6368812;28;20077;-42
2023/04/04 03:34:42;;;;;;;0.55;0.55;;;20.90;70.90;;;;;;6368636;28;20044;-45
2023/04/04 03:37:44;;;;;;;0.30;0.25;;;20.90;71.10;;;;;;6369464;28;20124;-47
2023/04/04 03:40:46;;;;;;;0.45;0.30;;;;;;;;;;6369953;28;20043;-44
2023/04/04 03:43:51;;;;;;;0.70;0.30;;;20.90;71.00;;;;;;6369563;28;20099;-43
2023/04/04 03:46:52;;;;;;;0.30;0.30;;;20.50;71.10;;;;;;6370868;28;20036;-44
2023/04/04 03:49:56;;;;;;;1.15;0.60;;;20.90;71.20;;;;;;6323603;28;20058;-47
2023/04/04 03:52:58;;;;;;;0.32;0.30;;;20.60;71.30;;;;;;6322421;28;20078;-44
2023/04/04 03:56:00;;;;;;;0.40;0.40;;;;;;;;;;6374135;28;20070;-42
2023/04/04 03:59:03;;;;;;;0.30;0.30;;;20.60;71.20;;;;;;6371413;28;20040;-43
2023/04/04 04:02:06;;;;;;;0.68;0.50;;;20.60;62.60;;;;;;6372703;28;20507;-46
2023/04/04 04:05:08;;;;;;;1.10;0.47;;;20.60;71.00;;;;;;6373443;28;20517;-40
2023/04/04 04:08:10;;;;;;;0.43;0.43;;;20.30;71.10;;;;;;6372591;28;20035;-46
2023/04/04 04:11:13;;;;;;;0.30;0.30;;;20.50;71.10;;;;;;6373041;28;20035;-45
2023/04/04 04:14:15;;;;;;;;;;;20.60;48.80;;;;;;6371725;28;20136;-46
2023/04/04 04:17:18;;;;;;;0.40;0.40;;;20.60;71.10;;;;;;6373510;28;19920;-43
2023/04/04 04:20:20;;;;;;;0.60;0.40;;;20.60;67.30;;;;;;6372547;28;20047;-46
2023/04/04 04:23:27;;;;;;;0.75;0.40;;;20.50;72.00;;;;;;6372467;28;20067;-43
2023/04/04 04:26:29;;;;;;;0.68;0.43;;;20.60;70.90;;;;;;6320877;28;20043;-44
2023/04/04 04:29:31;;;;;;;0.80;0.50;;;20.80;70.80;;;;;;6371732;28;20047;-43
2023/04/04 04:32:33;;;;;;;1.00;0.45;;;20.60;70.90;;;;;;6370707;28;20048;-46
2023/04/04 04:35:36;;;;;;;0.50;0.47;;;20.30;70.60;;;;;;6351720;28;20040;-43
2023/04/04 04:38:37;;;;;;;0.55;0.50;;;20.70;70.60;;;;;;6370694;28;20055;-42
2023/04/04 04:41:39;;;;;;;0.88;0.50;;;20.70;70.70;;;;;;6370306;28;20054;-41
2023/04/04 04:44:42;;;;;;;0.60;0.50;;;20.40;48.10;;;;;;6370802;28;20047;-42
2023/04/04 04:47:44;;;;;;;1.55;0.60;;;;;;;;;;6370557;28;20035;-47
2023/04/04 04:50:50;;;;;;;0.90;0.60;;;20.50;45.90;;;;;;6370359;28;20047;-44
2023/04/04 04:54:01;;;;;;;0.70;0.60;;;20.40;69.60;;;;;;6370552;28;20048;-42
2023/04/04 04:57:05;;;;;;;0.50;0.40;;;;;;;;;;6370392;28;20043;-42
2023/04/04 05:00:10;;;;;;;0.70;0.45;;;20.50;69.40;;;;;;6369439;28;20048;-42
2023/04/04 05:03:12;;;;;;;0.73;0.50;;;20.50;69.00;;;;;;6370030;28;20099;-43
2023/04/04 05:06:21;;;;;;;0.85;0.65;;;20.80;69.30;;;;;;6370132;28;20067;-41
2023/04/04 05:09:22;;;;;;;;;;;20.20;47.30;;;;;;6370864;28;20487;-40
2023/04/04 05:12:24;;;;;;;;;;;20.40;47.40;;;;;;6369872;28;19920;-44
2023/04/04 05:15:28;;;;;;;0.60;0.50;;;20.50;68.80;;;;;;6368072;28;19919;-45
2023/04/04 05:18:30;;;;;;;1.35;0.60;;;20.10;68.30;;;;;;6368681;28;20067;-41
2023/04/04 05:21:32;;;;;;;0.85;0.50;;;20.50;68.50;;;;;;6369521;28;20429;-43
2023/04/04 05:24:38;;;;;;;0.73;0.52;;;20.40;68.10;;;;;;6370042;28;20097;-44
2023/04/04 05:27:41;;;;;;;0.90;0.60;;;20.50;67.70;;;;;;6370897;28;20099;-41
2023/04/04 05:30:43;;;;;;;0.60;0.50;;;20.50;67.20;;;;;;6368670;28;20574;-43
2023/04/04 05:33:50;;;;;;;0.60;0.45;;;20.20;66.90;;;;;;6370132;28;20051;-44
2023/04/04 05:37:02;;;;;;;0.80;0.60;;;20.30;66.80;;;;;;6369171;28;20047;-46
2023/04/04 05:40:07;;;;;;;0.90;0.60;;;20.40;64.30;;;;;;6368045;28;20478;-48
2023/04/04 05:43:10;;;;;;;0.88;0.68;;;;;;;;;;6368382;28;20055;-44
2023/04/04 05:46:28;;;;;;;0.57;0.35;;;20.50;67.20;;;;;;6367288;28;20044;-46
2023/04/04 05:49:30;;;;;;;1.38;0.65;;;20.30;65.60;;;;;;6367225;28;20073;-44
2023/04/04 05:52:36;;;;;;;0.60;0.50;;;20.30;66.70;;;;;;6365360;28;20062;-44
2023/04/04 05:55:38;;;;;;;1.02;0.77;;;20.60;66.80;;;;;;6365216;28;20054;-46
2023/04/04 05:58:41;;;;;;;1.00;0.70;;;20.30;66.90;;;;;;6362087;28;20044;-48
2023/04/04 06:01:43;;;;;;;0.93;0.60;;;20.40;51.30;;;;;;6360365;28;20055;-45
2023/04/04 06:04:48;;;;;;;0.65;0.63;;;20.60;67.10;;;;;;6364527;28;20414;-46
2023/04/04 06:07:55;;;;;;;0.70;0.50;;;;;;;;;;6367041;28;20044;-44
2023/04/04 06:10:57;;;;;;;0.85;0.70;;;20.50;57.00;;;;;;6365797;28;20107;-41
2023/04/04 06:14:03;;;;;;;0.65;0.50;;;20.10;66.60;;;;;;6364687;28;20047;-43
2023/04/04 06:17:06;;;;;;;0.50;0.40;;;20.30;66.40;;;;;;6365118;28;20048;-46
2023/04/04 06:20:09;;;;;;;0.90;0.60;;;20.40;66.70;;;;;;6364414;28;20032;-42
2023/04/04 06:23:11;;;;;;;0.90;0.60;;;;;;;;;;6365384;28;20114;-45
2023/04/04 06:26:18;;;;;;;0.73;0.60;;;20.30;66.60;;;;;;6364458;28;20094;-45
2023/04/04 06:29:20;;;;;;;0.85;0.77;;;20.60;66.70;;;;;;6364869;28;20085;-47
2023/04/04 06:32:22;;;;;;;0.98;0.73;;;20.50;60.90;;;;;;6364075;28;20050;-43
2023/04/04 06:35:24;;;;;;;1.13;0.70;;;20.40;66.60;;;;;;6362348;28;20035;-44
2023/04/04 06:38:35;;;;;;;0.70;0.50;;;20.40;66.70;;;;;;6365575;28;20089;-46
2023/04/04 06:41:42;;;;;;;0.77;0.63;;;20.40;66.50;;;;;;6359207;28;20051;-41
2023/04/04 06:44:44;;;;;;;1.25;0.77;;;20.70;66.60;;;;;;6353144;28;20518;-44
2023/04/04 06:47:46;;;;;;;0.85;0.68;;;20.40;66.50;;;;;;6351597;28;20040;-44
2023/04/04 06:50:48;;;;;;;1.00;0.90;;;;;;;;;;6298834;28;20051;-43
2023/04/04 06:53:51;;;;;;;0.95;0.77;;;20.40;66.60;;;;;;6346725;28;20071;-45
2023/04/04 06:56:53;;;;;;;;;;;20.60;45.60;;;;;;6347544;28;20050;-46
2023/04/04 06:59:55;;;;;;;1.42;0.80;;;20.30;51.20;;;;;;6347174;28;19923;-45
2023/04/04 07:03:02;;;;;;;1.50;0.73;;;20.80;67.10;;;;;;6347374;28;20044;-45
2023/04/04 07:06:04;;;;;;;0.95;0.68;;;;;;;;;;6346799;28;20046;-48
2023/04/04 07:09:06;;;;;;;0.73;0.60;;;20.60;66.50;;;;;;6328855;28;20470;-42
2023/04/04 07:12:17;;;;;;;1.52;0.50;;;20.80;67.00;;;;;;6345997;28;20048;-47
2023/04/04 07:15:18;;;;;;;0.85;0.70;;;20.70;66.90;;;;;;6346870;28;20043;-46
2023/04/04 07:18:20;;;;;;;;;;;20.50;45.60;;;;;;6346715;28;20048;-48
2023/04/04 07:21:22;;;;;;;0.82;0.73;;;20.80;65.10;;;;;;6346207;28;20359;-43
2023/04/04 07:24:26;;;;;;;;;;;20.50;44.60;;;;;;6351257;28;20100;-47
2023/04/04 07:27:28;;;;;;;1.60;0.90;;;;;;;;;;6350479;28;19931;-48
2023/04/04 07:30:32;;;;;;;1.40;0.88;;;;;;;;;;6350450;28;20047;-43
2023/04/04 07:33:34;;;;;;;2.85;0.80;;;20.70;66.20;;;;;;6351054;28;20119;-46
2023/04/04 07:36:35;;;;;;;1.75;0.50;;;20.80;66.90;;;;;;6350530;28;20046;-47
2023/04/04 07:39:37;;;;;;;0.65;0.50;;;20.90;66.80;;;;;;6350384;28;20036;-47
2023/04/04 07:42:43;;;;;;;0.60;0.50;;;20.90;66.60;;;;;;6350101;28;20097;-46
2023/04/04 07:45:45;;;;;;;0.70;0.60;;;20.60;66.70;;;;;;6350930;28;20071;-47
2023/04/04 07:48:47;;;;;;;;;;;20.50;45.40;;;;;;6350596;28;20047;-42
2023/04/04 07:51:48;;;;;;;0.85;0.68;;;21.00;67.00;;;;;;6349968;28;19920;-46
2023/04/04 07:54:51;;;;;;;0.85;0.52;;;20.90;67.30;;;;;;6350146;28;20036;-44
2023/04/04 07:57:53;;;;;;;1.08;0.50;;;20.70;66.50;;;;;;6350675;28;20047;-47
2023/04/04 08:00:56;;;;;;;0.80;0.57;;;20.30;50.80;;;;;;6331671;28;20048;-47
2023/04/04 08:03:58;;;;;;;0.57;0.40;;;20.80;44.80;;;;;;6349595;28;20047;-49
2023/04/04 08:07:00;;;;;;;0.40;0.40;;;20.90;66.80;;;;;;6349821;28;20092;-47
2023/04/04 08:10:02;;;;;;;0.40;0.40;;;;;;;;;;6349522;28;20046;-46
2023/04/04 08:13:04;;;;;;;0.88;0.47;;;20.70;66.80;;;;;;6349821;28;20035;-48
2023/04/04 08:16:07;;;;;;;0.70;0.60;;;20.80;67.70;;;;;;6349466;28;20093;-48
2023/04/04 08:19:12;;;;;;;2.58;0.50;;;20.90;63.10;;;;;;6349450;28;20069;-45
2023/04/04 08:22:14;;;;;;;0.30;0.30;;;20.90;66.60;;;;;;6349510;28;20048;-46
2023/04/04 08:25:15;;;;;;;;;;;21.10;45.00;;;;;;6349755;28;20044;-45
2023/04/04 08:28:17;;;;;;;0.60;0.30;;;20.90;66.60;;;;;;6349033;28;19924;-43
2023/04/04 08:31:18;;;;;;;;;;;20.90;45.30;;;;;;6349713;28;20049;-46
2023/04/04 08:34:22;;;;;;;0.38;0.38;;;20.70;66.90;;;;;;6348370;28;19951;-46
2023/04/04 08:37:23;;;;;;;0.38;0.30;;;21.00;66.60;;;;;;6349110;28;20076;-46
2023/04/04 08:40:25;;;;;;;;;;;20.70;45.00;;;;;;6349740;28;20055;-46
2023/04/04 08:43:27;;;;;;;1.73;0.60;;;20.70;65.80;;;;;;6313891;28;19927;-49
2023/04/04 08:46:29;;;;;;;0.20;0.20;;;20.60;65.40;;;;;;6349650;28;20062;-49
2023/04/04 08:49:45;;;;;;;0.55;0.40;;;21.10;43.40;;;;;;6330444;28;20040;-46
2023/04/04 08:52:46;;;;;;;0.60;0.40;;;21.10;64.20;;;;;;6349368;28;20070;-45
2023/04/04 08:55:48;;;;;;;0.40;0.30;;;20.70;65.50;;;;;;6348964;28;20050;-44
2023/04/04 08:58:50;;;;;;;1.08;0.40;;;20.90;65.90;;;;;;6349099;28;20441;-46
2023/04/04 09:02:03;;;;;;;0.50;0.50;;;21.20;67.00;;;;;;6349173;28;20109;-46
2023/04/04 09:05:07;;;;;;;0.52;0.50;;;20.60;50.00;;;;;;6349073;28;20048;-43
2023/04/04 09:08:11;;;;;;;0.85;0.40;;;20.80;65.30;;;;;;6348079;28;20448;-46
2023/04/04 09:11:13;;;;;;;0.57;0.40;;;20.80;65.20;;;;;;6348387;28;20051;-42
2023/04/04 09:14:15;;;;;;;0.40;0.40;;;;;;;;;;6348200;28;20048;-45
2023/04/04 09:17:17;;;;;;;2.28;0.30;;;20.70;64.10;;;;;;6348568;28;20414;-46
2023/04/04 09:20:33;;;;;;;0.57;0.38;;;20.80;63.90;;;;;;6348402;28;20040;-46
2023/04/04 09:23:35;;;;;;;0.47;0.38;;;21.00;63.70;;;;;;6348337;28;20046;-49
2023/04/04 09:26:52;;;;;;;0.57;0.40;;;21.20;63.80;;;;;;6348068;28;20039;-44
2023/04/04 09:29:55;;;;;;;0.32;0.32;;;;;;;;;;6350022;28;20035;-40
2023/04/04 09:33:00;;;;;;;0.50;0.40;;;20.90;63.50;;;;;;6352985;28;20039;-43
2023/04/04 09:36:06;;;;;;;0.47;0.35;;;21.30;48.20;;;;;;6353807;28;20039;-43
2023/04/04 09:39:08;;;;;;;0.95;0.40;;;21.20;63.00;;;;;;6338394;28;20051;-44
2023/04/04 09:42:09;;;;;;;;;;;21.10;42.30;;;;;;6350338;28;20375;-45
2023/04/04 09:45:13;;;;;;;1.05;0.63;;;21.20;63.20;;;;;;6348582;28;19919;-45
2023/04/04 09:48:32;;;;;;;0.43;0.40;;;21.30;63.20;;;;;;6349044;28;20108;-45
2023/04/04 09:51:35;;;;;;;0.40;0.30;;;20.80;62.90;;;;;;6330860;28;20048;-43
2023/04/04 09:54:36;;;;;;;0.30;0.20;;;;;;;;;;6349359;28;20081;-45
2023/04/04 09:57:49;;;;;;;0.35;0.30;;;20.70;62.50;;;;;;6349178;28;20119;-44
2023/04/04 10:00:51;;;;;;;;;;;20.90;41.80;;;;;;6350129;28;20043;-44
2023/04/04 10:03:54;;;;;;;0.50;0.30;;;20.90;62.90;;;;;;6330740;28;20298;-45
2023/04/04 10:06:58;;;;;;;0.75;0.45;;;20.90;62.70;;;;;;6315143;28;20043;-44
2023/04/04 10:10:01;;;;;;;0.28;0.20;;;21.90;43.10;;;;;;6349074;28;20487;-47
2023/04/04 10:13:03;;;;;;;1.15;0.40;;;21.20;63.00;;;;;;6349342;28;20044;-48
2023/04/04 10:16:06;;;;;;;0.45;0.40;;;21.10;62.80;;;;;;6348733;28;20406;-43
2023/04/04 10:19:08;;;;;;;0.65;0.30;;;21.40;50.50;;;;;;6330710;28;20058;-44
2023/04/04 10:22:10;;;;;;;0.35;0.20;;;21.00;62.40;;;;;;6348430;28;20043;-45
2023/04/04 10:25:13;;;;;;;0.60;0.30;;;21.30;41.00;;;;;;6348368;28;20135;-45
2023/04/04 10:28:15;;;;;;;0.43;0.25;;;21.10;62.00;;;;;;6348803;28;20051;-46
2023/04/04 10:31:21;;;;;;;0.63;0.30;;;21.40;62.30;;;;;;6348554;28;20039;-48
2023/04/04 10:34:28;;;;;;;0.20;0.20;;;21.30;61.50;;;;;;6330153;28;20508;-44
2023/04/04 10:37:36;;;;;;;0.75;0.40;;;21.40;62.10;;;;;;6329818;28;20144;-45
2023/04/04 10:40:43;;;;;;;0.65;0.38;;;21.30;61.60;;;;;;6313748;28;20044;-42
2023/04/04 10:43:46;;;;;;;0.57;0.30;;;21.00;61.60;;;;;;6347252;28;20035;-44
2023/04/04 10:46:52;;;;;;;0.55;0.20;;;21.20;40.30;;;;;;6347664;28;20040;-41
2023/04/04 10:49:55;;;;;;;0.45;0.30;;;21.40;61.40;;;;;;6347053;28;20043;-44
2023/04/04 10:52:59;;;;;;;0.20;0.20;;;21.50;50.90;;;;;;6347910;28;20051;-43
2023/04/04 10:56:02;;;;;;;0.45;0.40;;;21.40;61.50;;;;;;6348510;28;20071;-42
2023/04/04 10:59:12;;;;;;;0.52;0.22;;;21.50;61.20;;;;;;6352039;28;20144;-44
2023/04/04 11:02:14;;;;;;;0.50;0.28;;;21.30;61.20;;;;;;6333477;28;20040;-47
2023/04/04 11:05:21;;;;;;;0.40;0.25;;;21.40;61.30;;;;;;6352498;28;20521;-46
2023/04/04 11:08:25;;;;;;;0.50;0.40;;;21.40;40.10;;;;;;6334288;28;20096;-46
2023/04/04 11:11:28;;;;;;;0.30;0.28;;;21.00;40.80;;;;;;6352101;28;20067;-46
2023/04/04 11:14:29;;;;;;;0.52;0.30;;;21.20;58.80;;;;;;6351992;28;20046;-45
2023/04/04 11:17:41;;;;;;;;;;;21.20;40.60;;;;;;6353104;28;20036;-43
2023/04/04 11:20:47;;;;;;;0.65;0.40;;;21.50;61.10;;;;;;6353425;28;20363;-47
2023/04/04 11:24:13;;;;;;;0.60;0.40;;;21.60;61.20;;;;;;6318158;28;20164;-48
2023/04/04 11:27:15;;;;;;;0.30;0.30;;;21.60;60.90;;;;;;6333517;28;20043;-47
2023/04/04 11:30:25;;;;;;;1.55;0.30;;;21.70;61.10;;;;;;6351661;28;20042;-41
2023/04/04 11:33:27;;;;;;;0.10;0.10;;;21.30;60.60;;;;;;6333939;28;20043;-43
2023/04/04 11:37:00;;;;;;;0.70;0.30;;;21.60;38.20;;;;;;6354930;28;20042;-44
2023/04/04 11:40:11;;;;;;;0.73;0.38;;;21.70;60.70;;;;;;6336610;28;20044;-41
2023/04/04 11:43:15;;;;;;;0.30;0.30;;;21.50;38.30;;;;;;6334036;28;20044;-44
2023/04/04 11:46:18;;;;;;;0.20;0.20;;;21.30;60.10;;;;;;6352353;28;20443;-42
2023/04/04 11:49:24;;;;;;;0.28;0.28;;;21.80;60.50;;;;;;6352941;28;20127;-42
2023/04/04 11:52:32;;;;;;;0.35;0.30;;;21.70;60.40;;;;;;6318358;28;20399;-46
2023/04/04 11:55:39;;;;;;;0.40;0.40;;;21.40;60.30;;;;;;6334688;28;20055;-43
2023/04/04 11:58:46;;;;;;;0.30;0.30;;;21.40;60.40;;;;;;6334898;28;20135;-43
2023/04/04 12:01:48;;;;;;;0.40;0.30;;;21.70;40.40;;;;;;6365886;28;20406;-43
2023/04/04 12:04:55;;;;;;;0.43;0.30;;;21.70;60.70;;;;;;6358788;28;20038;-42
2023/04/04 12:07:58;;;;;;;0.38;0.30;;;21.70;60.80;;;;;;6358492;28;20042;-41
2023/04/04 12:11:06;;;;;;;0.47;0.30;;;21.90;59.50;;;;;;6360316;28;20050;-47
2023/04/04 12:14:14;;;;;;;0.45;0.45;;;21.20;59.30;;;;;;6341452;28;20040;-45
2023/04/04 12:17:18;;;;;;;0.50;0.20;;;21.60;59.50;;;;;;6366370;28;20039;-42
2023/04/04 12:20:22;;;;;;;0.40;0.40;;;21.30;59.60;;;;;;6364774;28;20043;-48
2023/04/04 12:23:23;;;;;;;0.50;0.40;;;21.50;60.00;;;;;;6357522;28;20084;-43
2023/04/04 12:26:28;;;;;;;;;;;21.50;39.80;;;;;;6356227;28;20537;-48
2023/04/04 12:29:35;;;;;;;0.70;0.30;;;21.90;60.20;;;;;;6353743;28;19981;-46
2023/04/04 12:32:36;;;;;;;0.60;0.40;;;21.50;60.10;;;;;;6335785;28;20114;-49
2023/04/04 12:35:40;;;;;;;0.30;0.30;;;21.70;60.30;;;;;;6351451;28;20050;-47
2023/04/04 12:38:57;;;;;;;0.40;0.40;;;21.80;60.10;;;;;;6350776;28;20044;-50
2023/04/04 12:42:02;;;;;;;0.80;0.32;;;21.80;60.30;;;;;;6351322;28;20529;-48
2023/04/04 12:45:06;;;;;;;0.30;0.30;;;21.50;60.30;;;;;;6351010;28;20043;-47
2023/04/04 12:48:11;;;;;;;0.73;0.30;;;21.80;60.30;;;;;;6351354;28;20093;-49
2023/04/04 12:51:17;;;;;;;0.40;0.30;;;;;;;;;;6338236;28;20100;-46
2023/04/04 12:54:27;;;;;;;0.30;0.30;;;21.80;60.30;;;;;;6335587;28;20047;-48
2023/04/04 12:57:30;;;;;;;0.30;0.20;;;21.70;39.50;;;;;;6352123;28;20055;-50
2023/04/04 13:00:31;;;;;;;0.20;0.20;;;21.90;60.50;;;;;;6354656;28;20055;-47
2023/04/04 13:03:36;;;;;;;0.20;0.20;;;21.80;60.30;;;;;;6362274;28;20060;-44
2023/04/04 13:06:38;;;;;;;1.45;0.30;;;22.00;60.40;;;;;;6357976;28;20048;-50
2023/04/04 13:09:54;;;;;;;0.63;0.30;;;22.00;60.30;;;;;;6349591;28;20043;-48
2023/04/04 13:13:00;;;;;;;0.30;0.20;;;22.00;60.20;;;;;;6331497;28;20510;-47
2023/04/04 13:16:03;;;;;;;1.00;0.30;;;21.90;60.30;;;;;;6331394;28;20463;-45
2023/04/04 13:19:06;;;;;;;0.30;0.30;;;21.70;60.00;;;;;;6314209;28;20047;-48
2023/04/04 13:22:08;;;;;;;;;;;21.60;39.80;;;;;;6348833;28;20039;-47
2023/04/04 13:25:11;;;;;;;0.30;0.20;;;21.80;39.30;;;;;;6349582;28;19943;-46
2023/04/04 13:28:15;;;;;;;0.77;0.47;;;22.10;56.60;;;;;;6331816;28;20059;-49
2023/04/04 13:31:17;;;;;;;0.40;0.30;;;21.90;59.90;;;;;;6349456;28;20043;-42
2023/04/04 13:34:20;;;;;;;0.40;0.30;;;21.80;60.00;;;;;;6349673;28;20124;-46
2023/04/04 13:37:23;;;;;;;0.32;0.30;;;21.70;60.00;;;;;;6348521;28;20075;-47
2023/04/04 13:40:26;;;;;;;0.40;0.30;;;22.10;53.50;;;;;;6348313;28;20035;-48
2023/04/04 13:43:28;;;;;;;0.22;0.20;;;21.90;60.30;;;;;;6349184;28;20055;-43
2023/04/04 13:46:30;;;;;;;0.50;0.30;;;;;;;;;;6349569;28;20044;-43
2023/04/04 13:49:31;;;;;;;0.30;0.30;;;21.80;60.10;;;;;;6349154;28;20054;-46
2023/04/04 13:52:33;;;;;;;0.28;0.20;;;21.80;60.10;;;;;;6352640;28;20093;-46
2023/04/04 13:55:34;;;;;;;0.30;0.30;;;21.80;60.20;;;;;;6353158;28;20035;-50
2023/04/04 13:58:36;;;;;;;;;;;21.80;40.00;;;;;;6353815;28;20040;-47
2023/04/04 14:01:38;;;;;;;0.60;0.40;;;21.90;60.50;;;;;;6349487;28;19963;-43
2023/04/04 14:04:40;;;;;;;0.30;0.28;;;21.80;60.40;;;;;;6332808;28;20046;-47
2023/04/04 14:07:42;;;;;;;0.40;0.30;;;;;;;;;;6353121;28;20395;-46
2023/04/04 14:10:46;;;;;;;0.40;0.30;;;22.00;60.30;;;;;;6349487;28;20437;-44
2023/04/04 14:13:50;;;;;;;0.32;0.30;;;22.30;60.20;;;;;;6350151;28;20063;-49
2023/04/04 14:16:52;;;;;;;0.30;0.30;;;22.20;60.30;;;;;;6348835;28;20047;-46
2023/04/04 14:19:53;;;;;;;;;;;22.20;40.40;;;;;;6350344;28;20067;-44
2023/04/04 14:22:55;;;;;;;0.50;0.25;;;22.10;60.30;;;;;;6349210;28;19959;-46
2023/04/04 14:25:56;;;;;;;;;;;22.10;40.20;;;;;;6348885;28;20039;-45
2023/04/04 14:28:58;;;;;;;1.58;0.40;;;22.40;60.40;;;;;;6352136;28;20282;-46
2023/04/04 14:32:00;;;;;;;0.68;0.50;;;22.20;60.10;;;;;;6348490;28;20055;-45
2023/04/04 14:35:02;;;;;;;1.40;0.40;;;22.30;60.00;;;;;;6300170;28;20467;-47
2023/04/04 14:38:04;;;;;;;0.80;0.50;;;22.40;60.00;;;;;;6348278;28;20058;-50
2023/04/04 14:41:06;;;;;;;0.65;0.40;;;;;;;;;;6351253;28;20039;-44
2023/04/04 14:44:09;;;;;;;0.40;0.30;;;22.40;59.90;;;;;;6323819;28;20054;-48
2023/04/04 14:47:10;;;;;;;1.95;0.52;;;21.90;59.70;;;;;;6323087;28;20044;-46
2023/04/04 14:50:14;;;;;;;;;;;22.40;40.10;;;;;;6322563;28;20480;-50
2023/04/04 14:53:16;;;;;;;0.85;0.50;;;22.40;45.90;;;;;;6321784;28;19919;-48
2023/04/04 14:56:18;;;;;;;0.70;0.40;;;22.30;59.70;;;;;;6321455;28;20051;-48
2023/04/04 14:59:22;;;;;;;1.63;0.40;;;22.00;59.30;;;;;;6304155;28;20081;-46
2023/04/04 15:02:24;;;;;;;0.93;0.47;;;22.50;59.60;;;;;;6322406;28;20380;-44
2023/04/04 15:05:26;;;;;;;;;;;22.20;39.70;;;;;;6321707;28;20100;-49
2023/04/04 15:08:27;;;;;;;0.90;0.40;;;22.60;60.30;;;;;;6321336;28;19927;-46
2023/04/04 15:11:29;;;;;;;;;;;22.50;39.40;;;;;;6322472;28;20510;-48
2023/04/04 15:14:32;;;;;;;0.63;0.40;;;22.20;59.50;;;;;;6322323;28;20023;-47
2023/04/04 15:17:35;;;;;;;0.63;0.40;;;22.80;59.70;;;;;;6321816;28;20385;-50
2023/04/04 15:20:38;;;;;;;1.13;0.65;;;22.20;59.50;;;;;;6321804;28;20434;-49
2023/04/04 15:23:41;;;;;;;0.30;0.30;;;22.20;39.20;;;;;;6322149;28;20475;-43
2023/04/04 15:26:43;;;;;;;0.43;0.30;;;;;;;;;;6323056;28;20387;-45
2023/04/04 15:29:45;;;;;;;1.35;0.30;;;22.40;39.30;;;;;;6321617;28;20108;-45
2023/04/04 15:32:48;;;;;;;0.60;0.30;;;22.40;59.70;;;;;;6321399;28;20048;-46
2023/04/04 15:35:52;;;;;;;0.93;0.30;;;22.70;59.80;;;;;;6321891;28;20044;-45
2023/04/04 15:38:54;;;;;;;0.60;0.40;;;22.60;59.90;;;;;;6322030;28;20407;-43
2023/04/04 15:41:56;;;;;;;0.50;0.40;;;22.50;59.50;;;;;;6321793;28;20529;-45
2023/04/04 15:44:58;;;;;;;0.63;0.40;;;22.80;60.00;;;;;;6325033;28;20086;-43
2023/04/04 15:48:00;;;;;;;3.97;0.40;;;22.50;59.60;;;;;;6325864;28;20041;-45
2023/04/04 15:51:02;;;;;;;0.47;0.20;;;22.70;60.20;;;;;;6325749;28;20443;-46
2023/04/04 15:54:03;;;;;;;0.57;0.30;;;22.20;60.00;;;;;;6325138;28;20040;-47
2023/04/04 15:57:04;;;;;;;;;;;22.40;39.60;;;;;;6326912;28;20090;-43
2023/04/04 16:00:08;;;;;;;0.50;0.30;;;22.40;59.20;;;;;;6325360;28;19958;-43
2023/04/04 16:03:10;;;;;;;0.68;0.30;;;22.50;59.50;;;;;;6324848;28;20047;-43
2023/04/04 16:06:12;;;;;;;0.85;0.45;;;22.60;59.10;;;;;;6325110;28;20036;-43
2023/04/04 16:09:13;;;;;;;0.30;0.30;;;22.80;59.40;;;;;;6324747;28;20059;-45
2023/04/04 16:12:16;;;;;;;0.70;0.40;;;22.90;59.30;;;;;;6324607;28;20040;-42
2023/04/04 16:15:18;;;;;;;1.60;0.52;;;22.60;58.90;;;;;;6324932;28;20067;-43